Time;durP1;ratioP1;P1;durP2;ratioP2;P2;SDS_P1;SDS_P2;PMS_P1;PMS_P2;Temp;Humidity;BMP_temperature;BMP_pressure;BME280_temperature;BME280_humidity;BME280_pressure;Samples;Min_cycle;Max_cycle;Signal;HPM_P1;HPM_P2
2022/11/07 00:00:11;;;;;;;7.72;3.45;;;;;;;9.45;97.74;100614.78;5037386;28;20029;-77
2022/11/07 00:02:37;;;;;;;6.32;3.20;;;;;;;9.42;98.45;100615.88;5044735;28;20385;-76
2022/11/07 00:05:03;;;;;;;7.03;3.05;;;;;;;9.43;97.68;100617.50;5051044;28;20470;-78
2022/11/07 00:07:28;;;;;;;8.55;3.00;;;;;;;9.44;97.67;100626.91;5046854;28;20123;-77
2022/11/07 00:09:54;;;;;;;7.25;2.83;;;;;;;9.45;97.90;100625.97;5052564;28;20040;-78
2022/11/07 00:12:19;;;;;;;8.52;3.00;;;;;;;9.42;97.84;100628.81;5049336;28;20427;-77
2022/11/07 00:14:45;;;;;;;9.18;3.38;;;;;;;9.47;98.13;100639.63;5051199;28;20029;-77
2022/11/07 00:17:10;;;;;;;6.15;2.88;;;;;;;9.49;98.11;100632.53;5051423;28;20513;-79
2022/11/07 00:19:35;;;;;;;7.15;3.30;;;;;;;9.51;98.05;100637.59;5050580;28;20037;-76
2022/11/07 00:22:01;;;;;;;8.18;3.22;;;;;;;9.55;98.03;100634.66;5048237;28;20036;-77
2022/11/07 00:24:26;;;;;;;7.38;3.08;;;;;;;9.56;97.83;100632.88;5046348;28;20083;-78
2022/11/07 00:26:51;;;;;;;7.57;3.00;;;;;;;9.56;98.05;100638.88;5046476;28;20029;-77
2022/11/07 00:29:19;;;;;;;6.30;3.20;;;;;;;9.56;97.95;100644.06;5047907;28;20029;-78
2022/11/07 00:31:47;;;;;;;8.32;3.28;;;;;;;9.58;98.09;100642.19;5040656;28;20033;-78
2022/11/07 00:34:12;;;;;;;7.28;3.00;;;;;;;9.56;97.78;100641.47;5037868;28;20060;-77
2022/11/07 00:36:38;;;;;;;8.48;2.80;;;;;;;9.53;97.65;100639.13;5034197;28;20028;-78
2022/11/07 00:39:04;;;;;;;8.10;3.08;;;;;;;9.55;97.79;100642.41;5049207;28;20056;-77
2022/11/07 00:41:30;;;;;;;6.10;2.75;;;;;;;9.54;97.61;100635.59;5038036;28;20115;-77
2022/11/07 00:43:56;;;;;;;5.78;2.95;;;;;;;9.53;97.60;100654.66;5078220;28;20036;-79
2022/11/07 00:46:22;;;;;;;7.43;2.90;;;;;;;9.56;97.97;100656.19;5053088;28;20024;-77
2022/11/07 00:48:48;;;;;;;7.60;3.05;;;;;;;9.44;97.86;100636.44;5048247;28;20068;-77
2022/11/07 00:51:20;;;;;;;5.55;2.83;;;;;;;9.57;98.12;100643.09;5048838;28;20554;-76
2022/11/07 00:53:46;;;;;;;7.72;2.78;;;;;;;9.55;98.12;100641.59;5056432;28;20459;-77
2022/11/07 00:56:15;;;;;;;6.43;2.70;;;;;;;9.59;97.74;100655.94;5058134;28;20021;-76
2022/11/07 00:58:41;;;;;;;5.97;2.75;;;;;;;9.57;97.73;100645.69;5047248;28;20115;-77
2022/11/07 01:01:18;;;;;;;5.65;3.00;;;;;;;9.63;97.97;100646.16;5045609;28;20029;-77
2022/11/07 01:06:30;;;;;;;7.63;2.78;;;;;;;9.64;97.79;100660.75;5048905;28;20052;-77
2022/11/07 01:08:56;;;;;;;6.97;2.90;;;;;;;9.62;97.68;100653.09;5047609;28;20462;-77
2022/11/07 01:11:23;;;;;;;9.10;2.80;;;;;;;9.64;97.88;100655.59;5049940;28;20123;-77
2022/11/07 01:13:49;;;;;;;7.38;2.78;;;;;;;9.63;97.17;100653.91;5047111;28;20036;-77
2022/11/07 01:16:14;;;;;;;5.93;3.05;;;;;;;9.56;97.66;100659.59;5047162;28;20040;-76
2022/11/07 01:18:40;;;;;;;5.80;2.53;;;;;;;9.58;97.82;100662.91;5047140;28;20024;-77
2022/11/07 01:21:07;;;;;;;8.68;2.92;;;;;;;9.56;97.84;100669.94;5051203;28;20717;-77
2022/11/07 01:23:33;;;;;;;8.90;2.78;;;;;;;9.58;97.88;100677.59;5045752;28;20064;-76
2022/11/07 01:26:07;;;;;;;7.60;2.50;;;;;;;9.49;97.61;100661.03;5062242;28;20103;-76
2022/11/07 01:28:34;;;;;;;5.15;2.40;;;;;;;9.55;97.45;100683.84;5055189;28;20414;-78
2022/11/07 01:31:03;;;;;;;7.68;2.70;;;;;;;9.55;98.00;100678.66;5036427;28;20064;-76
2022/11/07 01:33:29;;;;;;;6.15;2.50;;;;;;;9.47;97.64;100681.03;5042394;28;20028;-76
2022/11/07 01:35:58;;;;;;;9.38;2.53;;;;;;;9.51;97.82;100682.44;5043668;28;20368;-77
2022/11/07 01:38:23;;;;;;;7.53;2.28;;;;;;;9.49;97.91;100689.50;5046340;28;20071;-76
2022/11/07 01:44:05;;;;;;;6.95;2.10;;;;;;;9.50;97.79;100691.16;5047005;28;20060;-77
2022/11/07 01:46:33;;;;;;;7.33;2.57;;;;;;;9.48;98.17;100687.03;5023944;28;20147;-78
2022/11/07 01:49:09;;;;;;;6.97;2.63;;;;;;;9.46;98.47;100684.59;5041104;28;20033;-77
2022/11/07 01:51:41;;;;;;;5.47;2.33;;;;;;;9.43;97.84;100679.63;5045296;28;20044;-77
2022/11/07 01:54:07;;;;;;;5.80;2.47;;;;;;;9.40;98.25;100669.50;5036326;28;20405;-78
2022/11/07 01:56:36;;;;;;;7.55;2.60;;;;;;;9.47;97.77;100691.41;5047783;28;20024;-77
2022/11/07 01:59:02;;;;;;;6.75;2.65;;;;;;;9.46;97.93;100696.69;5053304;28;20040;-76
2022/11/07 02:01:28;;;;;;;7.05;2.30;;;;;;;9.46;98.53;100696.69;5044566;28;20035;-77
2022/11/07 02:03:55;;;;;;;6.47;2.15;;;;;;;9.41;97.96;100691.88;5046691;28;20025;-77
2022/11/07 02:06:34;;;;;;;8.30;2.92;;;;;;;9.45;98.62;100687.28;5043900;28;20447;-77
2022/11/07 02:08:59;;;;;;;5.78;2.45;;;;;;;9.40;98.44;100679.88;5075006;28;20079;-78
2022/11/07 02:11:24;;;;;;;10.65;3.08;;;;;;;9.42;97.91;100688.34;5046414;28;20037;-77
2022/11/07 02:13:50;;;;;;;6.82;2.50;;;;;;;9.45;98.01;100698.44;5035913;28;20120;-76
2022/11/07 02:16:18;;;;;;;9.15;2.90;;;;;;;9.44;98.46;100696.00;5047148;28;20102;-77
2022/11/07 02:18:44;;;;;;;8.73;2.75;;;;;;;9.43;98.63;100697.75;5048583;28;20534;-76
2022/11/07 02:21:52;;;;;;;5.63;2.90;;;;;;;9.46;98.57;100697.53;5052587;28;20454;-76
2022/11/07 02:24:28;;;;;;;6.63;2.55;;;;;;;9.47;98.06;100709.53;5039288;28;20036;-77
2022/11/07 02:26:56;;;;;;;7.35;2.60;;;;;;;9.45;98.49;100703.63;5041710;28;20108;-77
2022/11/07 02:29:22;;;;;;;9.95;3.65;;;;;;;9.43;98.41;100690.00;5049835;28;20070;-76
2022/11/07 02:32:08;;;;;;;8.25;2.60;;;;;;;9.45;98.98;100693.28;5044903;28;20035;-77
2022/11/07 02:34:35;;;;;;;8.38;2.85;;;;;;;9.40;99.12;100687.63;5042837;28;20207;-77
2022/11/07 02:37:04;;;;;;;8.32;2.90;;;;;;;9.40;98.72;100679.88;5045306;28;20033;-78
2022/11/07 02:39:30;;;;;;;6.60;2.90;;;;;;;9.46;98.84;100689.75;5041404;28;20033;-77
2022/11/07 02:41:58;;;;;;;5.28;2.80;;;;;;;9.45;99.08;100698.44;5042748;28;20532;-76
2022/11/07 02:44:24;;;;;;;9.93;3.15;;;;;;;9.45;98.65;100693.28;5056521;28;20049;-79
2022/11/07 02:46:50;;;;;;;8.15;3.22;;;;;;;9.44;98.76;100686.44;5044313;28;20094;-79
2022/11/07 02:49:17;;;;;;;8.10;2.75;;;;;;;9.45;98.87;100693.28;5041132;28;20440;-77
2022/11/07 02:51:43;;;;;;;7.43;2.53;;;;;;;9.42;99.29;100680.59;5043841;28;20035;-78
2022/11/07 02:54:08;;;;;;;6.90;3.08;;;;;;;9.40;98.82;100679.88;5044579;28;20028;-77
2022/11/07 02:56:33;;;;;;;7.45;2.97;;;;;;;9.43;99.24;100676.22;5050071;28;20496;-78
2022/11/07 02:58:59;;;;;;;6.63;2.53;;;;;;;9.45;99.42;100682.91;5040437;28;20035;-78
2022/11/07 03:01:24;;;;;;;7.90;3.33;;;;;;;9.47;99.28;100680.22;5045864;28;20609;-78
2022/11/07 03:03:50;;;;;;;8.68;2.85;;;;;;;9.47;99.22;100686.22;5036226;28;20036;-77
2022/11/07 03:06:19;;;;;;;11.10;3.17;;;;;;;9.47;99.33;100686.22;5041523;28;20039;-77
2022/11/07 03:08:44;;;;;;;;;;;;;;;9.52;98.65;100683.28;5047188;28;20036;-77
2022/11/07 03:11:11;;;;;;;9.70;2.63;;;;;;;9.49;99.29;100676.56;5051579;28;19916;-77
2022/11/07 03:13:36;;;;;;;9.43;2.67;;;;;;;9.52;99.02;100688.47;5043482;28;20028;-77
2022/11/07 03:16:07;;;;;;;7.85;2.45;;;;;;;9.50;99.16;100691.16;5045095;28;20384;-77
2022/11/07 03:18:33;;;;;;;10.63;2.97;;;;;;;9.51;99.06;100681.59;5047874;28;20097;-78
2022/11/07 03:20:59;;;;;;;8.65;3.00;;;;;;;9.48;99.49;100677.50;5047079;28;20056;-76
2022/11/07 03:23:24;;;;;;;7.43;2.42;;;;;;;9.53;99.50;100690.91;5044612;28;20048;-78
2022/11/07 03:25:52;;;;;;;9.50;2.58;;;;;;;9.47;99.66;100681.03;5042387;28;20021;-80
2022/11/07 03:28:18;;;;;;;9.85;2.58;;;;;;;9.53;99.02;100685.75;5036426;28;20047;-76
2022/11/07 03:30:43;;;;;;;7.45;2.80;;;;;;;9.55;99.23;100683.84;5046129;28;20453;-78
2022/11/07 03:33:09;;;;;;;7.50;2.83;;;;;;;9.53;99.45;100696.09;5054069;28;20067;-76
2022/11/07 03:35:34;;;;;;;8.68;2.42;;;;;;;9.56;99.01;100695.84;5042592;28;20544;-77
2022/11/07 03:38:00;;;;;;;10.13;2.80;;;;;;;9.57;99.70;100692.28;5042226;28;20029;-76
2022/11/07 03:40:25;;;;;;;8.18;3.08;;;;;;;9.51;98.86;100682.44;5039054;28;20069;-76
2022/11/07 03:42:51;;;;;;;5.75;2.10;;;;;;;9.57;99.88;100710.41;5044158;28;20088;-76
2022/11/07 03:45:16;;;;;;;14.15;2.45;;;;;;;9.56;99.60;100701.00;5046359;28;20359;-77
2022/11/07 03:47:44;;;;;;;7.43;2.47;;;;;;;9.51;99.43;100703.13;5045458;28;20036;-77
2022/11/07 03:50:15;;;;;;;10.43;2.75;;;;;;;9.57;99.65;100712.19;5037302;28;20027;-77
2022/11/07 03:52:41;;;;;;;9.15;2.30;;;;;;;9.58;99.49;100725.03;5046365;28;20036;-77
2022/11/07 03:55:07;;;;;;;9.05;2.53;;;;;;;9.54;100.00;100708.09;5042343;28;20029;-77
2022/11/07 03:57:33;;;;;;;10.98;3.10;;;;;;;9.58;100.00;100708.69;5040391;28;20091;-77
2022/11/07 03:59:58;;;;;;;8.27;2.45;;;;;;;9.55;99.79;100704.56;5048961;28;20013;-76
2022/11/07 04:02:23;;;;;;;5.13;2.08;;;;;;;9.54;99.83;100707.28;5049192;28;20040;-77
2022/11/07 04:04:49;;;;;;;7.32;2.33;;;;;;;9.63;100.00;100710.88;5048249;28;20027;-77
2022/11/07 04:07:14;;;;;;;10.57;2.67;;;;;;;9.65;100.00;100714.19;5048924;28;20032;-78
2022/11/07 04:09:40;;;;;;;9.55;2.60;;;;;;;9.65;100.00;100703.84;5038079;28;20136;-77
2022/11/07 04:17:33;;;;;;;13.45;3.40;;;;;;;9.67;99.36;100704.53;5039854;28;20036;-77
2022/11/07 04:19:58;;;;;;;10.10;2.58;;;;;;;9.69;99.57;100705.22;5056058;28;20036;-77
2022/11/07 04:22:25;;;;;;;9.57;2.65;;;;;;;9.69;99.17;100706.06;5042592;28;20029;-78
2022/11/07 04:24:51;;;;;;;11.27;2.50;;;;;;;9.73;99.21;100709.22;5046825;28;20024;-78
2022/11/07 04:30:22;;;;;;;7.22;2.50;;;;;;;9.72;99.95;100704.97;5045499;28;20136;-78
2022/11/07 04:32:52;;;;;;;8.45;2.50;;;;;;;9.75;99.05;100707.34;5045210;28;20064;-78
2022/11/07 04:35:19;;;;;;;7.07;2.50;;;;;;;9.78;99.28;100709.66;5042764;28;20036;-77
2022/11/07 04:37:46;;;;;;;10.55;2.60;;;;;;;9.77;100.00;100713.22;5045125;28;20051;-77
2022/11/07 04:40:12;;;;;;;10.50;2.67;;;;;;;9.77;100.00;100716.63;5042259;28;20217;-76
2022/11/07 04:42:41;;;;;;;10.65;2.55;;;;;;;9.80;99.66;100723.31;5043442;28;20412;-77
2022/11/07 04:45:07;;;;;;;9.73;2.60;;;;;;;9.78;99.49;100714.84;5045478;28;20043;-77
2022/11/07 04:47:32;;;;;;;9.30;2.67;;;;;;;9.81;100.00;100714.63;5042063;28;20029;-77
2022/11/07 04:49:58;;;;;;;10.95;2.50;;;;;;;9.81;100.00;100714.63;5051316;28;20483;-76
2022/11/07 04:52:23;;;;;;;6.65;2.33;;;;;;;9.79;99.75;100721.66;5055103;28;20107;-78
2022/11/07 04:54:48;;;;;;;15.35;3.17;;;;;;;9.81;99.78;100724.97;5043292;28;20372;-80
2022/11/07 04:57:14;;;;;;;10.25;2.42;;;;;;;9.83;100.00;100723.09;5045515;28;20508;-77
2022/11/07 04:59:40;;;;;;;8.48;2.90;;;;;;;9.80;100.00;100718.94;5050469;28;20036;-77
2022/11/07 05:02:05;;;;;;;15.60;2.75;;;;;;;9.81;99.62;100709.44;5041622;28;20158;-76
2022/11/07 05:04:31;;;;;;;8.52;2.28;;;;;;;9.82;99.89;100718.84;5039278;28;20057;-76
2022/11/07 05:06:56;;;;;;;11.63;2.70;;;;;;;9.85;99.13;100710.81;5039960;28;20036;-77
2022/11/07 05:09:22;;;;;;;13.60;2.55;;;;;;;9.84;99.04;100710.00;5038495;28;20075;-76
2022/11/07 05:11:47;;;;;;;10.77;2.63;;;;;;;9.85;99.63;100716.00;5039082;28;20022;-78
2022/11/07 05:14:13;;;;;;;8.52;2.03;;;;;;;9.85;99.78;100716.00;5040326;28;20021;-77
2022/11/07 05:16:41;;;;;;;9.38;2.30;;;;;;;9.85;99.08;100716.00;5041176;28;20026;-78
2022/11/07 05:19:06;;;;;;;12.05;2.13;;;;;;;9.86;99.37;100717.63;5041110;28;20220;-77
2022/11/07 05:21:31;;;;;;;10.80;2.70;;;;;;;9.83;99.41;100720.50;5054977;28;20377;-77
2022/11/07 05:23:57;;;;;;;11.00;2.15;;;;;;;9.83;99.65;100717.91;5042102;28;20036;-77
2022/11/07 05:26:22;;;;;;;8.98;2.40;;;;;;;9.84;99.53;100727.31;5045717;28;20373;-76
2022/11/07 05:28:48;;;;;;;11.95;2.05;;;;;;;9.82;99.53;100722.25;5057720;28;20440;-76
2022/11/07 05:31:15;;;;;;;10.18;2.42;;;;;;;9.79;99.18;100721.66;5038446;28;20033;-77
2022/11/07 05:33:41;;;;;;;11.13;2.72;;;;;;;9.80;98.65;100729.31;5040512;28;20044;-76
2022/11/07 05:36:14;;;;;;;11.10;2.50;;;;;;;9.82;99.37;100713.66;5034022;28;20457;-77
2022/11/07 05:38:45;;;;;;;8.48;2.30;;;;;;;9.81;99.28;100714.63;5044959;28;20029;-77
2022/11/07 05:41:12;;;;;;;10.15;2.13;;;;;;;9.81;98.65;100720.63;5043367;28;20034;-76
2022/11/07 05:43:38;;;;;;;10.15;2.35;;;;;;;9.80;99.17;100724.13;5046935;28;20528;-77
2022/11/07 05:46:04;;;;;;;10.20;2.40;;;;;;;9.81;98.59;100719.81;5043359;28;20028;-77
2022/11/07 05:48:29;;;;;;;12.73;2.75;;;;;;;9.82;98.89;100721.44;5047234;28;20033;-76
2022/11/07 05:50:56;;;;;;;6.35;2.15;;;;;;;9.83;99.08;100723.09;5046781;28;20052;-78
2022/11/07 05:53:24;;;;;;;13.52;3.08;;;;;;;9.83;98.61;100726.50;5044009;28;20035;-76
2022/11/07 05:55:49;;;;;;;11.25;2.42;;;;;;;9.84;98.78;100724.72;5047680;28;20052;-76
2022/11/07 05:58:15;;;;;;;13.90;3.08;;;;;;;9.85;98.62;100731.53;5050975;28;20548;-76
2022/11/07 06:00:41;;;;;;;11.20;2.55;;;;;;;9.84;98.29;100729.91;5044386;28;20037;-77
2022/11/07 06:03:07;;;;;;;11.77;2.10;;;;;;;9.84;98.89;100714.34;5046752;28;20125;-76
2022/11/07 06:05:32;;;;;;;11.32;2.47;;;;;;;9.86;98.91;100728.00;5044720;28;20060;-77
2022/11/07 06:07:58;;;;;;;11.10;3.15;;;;;;;9.88;98.57;100726.13;5048067;28;20132;-76
2022/11/07 06:10:24;;;;;;;11.38;2.53;;;;;;;9.90;98.71;100726.81;5045709;28;20528;-76
2022/11/07 06:13:01;;;;;;;13.65;2.83;;;;;;;9.95;98.85;100732.44;5055433;28;20473;-77
2022/11/07 06:15:27;;;;;;;13.25;2.50;;;;;;;9.95;98.45;100731.63;5042297;28;20029;-76
2022/11/07 06:17:53;;;;;;;11.95;2.40;;;;;;;9.93;98.30;100724.00;5042467;28;20033;-78
2022/11/07 06:20:18;;;;;;;15.45;2.67;;;;;;;9.93;98.65;100724.00;5044763;28;20477;-77
2022/11/07 06:22:44;;;;;;;11.18;2.70;;;;;;;9.98;98.41;100732.22;5042839;28;20079;-76
2022/11/07 06:25:09;;;;;;;8.75;2.25;;;;;;;9.98;98.29;100732.22;5035969;28;20110;-78
2022/11/07 06:27:34;;;;;;;11.57;2.33;;;;;;;9.98;98.94;100734.81;5042355;28;20051;-76
2022/11/07 06:30:00;;;;;;;8.32;2.40;;;;;;;9.99;98.70;100738.22;5043384;28;20503;-78
2022/11/07 06:32:26;;;;;;;10.60;2.35;;;;;;;9.99;98.75;100738.22;5049566;28;20040;-77
2022/11/07 06:34:52;;;;;;;10.80;2.33;;;;;;;9.94;98.46;100730.81;5047786;28;20501;-78
2022/11/07 06:37:17;;;;;;;10.00;2.63;;;;;;;9.96;97.86;100734.09;5046410;28;20052;-76
2022/11/07 06:39:42;;;;;;;11.50;2.17;;;;;;;10.01;97.95;100747.50;5071594;28;20028;-77
2022/11/07 06:42:08;;;;;;;10.98;2.47;;;;;;;10.01;98.57;100744.91;5049154;28;20025;-78
2022/11/07 06:44:33;;;;;;;11.82;2.00;;;;;;;9.99;97.93;100744.22;5045632;28;20036;-76
2022/11/07 06:46:59;;;;;;;8.25;2.30;;;;;;;9.97;97.40;100753.88;5045979;28;20043;-76
2022/11/07 06:49:24;;;;;;;8.25;1.70;;;;;;;10.01;97.92;100755.28;5043659;28;20032;-78
2022/11/07 06:51:49;;;;;;;10.45;2.42;;;;;;;10.03;98.04;100753.38;5041921;28;20025;-78
2022/11/07 06:54:15;;;;;;;10.63;2.30;;;;;;;10.04;98.40;100760.22;5055448;28;20065;-78
2022/11/07 06:56:40;;;;;;;12.07;2.50;;;;;;;10.04;98.24;100762.81;5040576;28;20470;-77
2022/11/07 06:59:05;;;;;;;11.88;2.35;;;;;;;10.04;97.84;100757.63;5041193;28;20037;-77
2022/11/07 07:01:31;;;;;;;12.70;2.63;;;;;;;10.07;97.85;100757.38;5045711;28;20067;-78
2022/11/07 07:03:57;;;;;;;11.95;2.80;;;;;;;10.07;98.17;100772.91;5050050;28;20036;-78
2022/11/07 07:06:23;;;;;;;7.28;2.00;;;;;;;10.10;98.08;100767.50;5046237;28;20027;-77
2022/11/07 07:08:48;;;;;;;11.40;2.70;;;;;;;10.10;97.54;100770.09;5056018;28;20029;-76
2022/11/07 07:11:15;;;;;;;14.00;2.75;;;;;;;10.13;97.88;100779.38;5046459;28;20027;-78
2022/11/07 07:13:40;;;;;;;9.95;2.30;;;;;;;10.07;98.22;100770.34;5047750;28;20116;-77
2022/11/07 07:16:07;;;;;;;9.70;2.08;;;;;;;10.13;98.07;100776.78;5043794;28;20811;-79
2022/11/07 07:18:33;;;;;;;9.38;2.17;;;;;;;10.14;98.15;100778.44;5037733;28;20063;-77
2022/11/07 07:21:10;;;;;;;10.05;2.30;;;;;;;10.22;98.46;100780.44;5049457;28;20355;-77
2022/11/07 07:23:37;;;;;;;10.30;2.25;;;;;;;10.21;98.62;100783.97;5042525;28;20191;-77
2022/11/07 07:26:05;;;;;;;14.23;2.30;;;;;;;10.24;98.06;100789.75;5045706;28;20035;-77
2022/11/07 07:28:31;;;;;;;10.93;2.60;;;;;;;10.26;98.69;100787.00;5053693;28;20035;-78
2022/11/07 07:31:14;;;;;;;12.07;2.40;;;;;;;10.28;98.56;100795.50;5055648;28;20032;-78
2022/11/07 07:33:45;;;;;;;8.68;2.20;;;;;;;10.27;98.60;100784.31;5047482;28;20032;-77
2022/11/07 07:36:11;;;;;;;10.00;2.38;;;;;;;10.28;98.12;100795.50;5035792;28;20036;-77
2022/11/07 07:38:37;;;;;;;10.52;3.13;;;;;;;10.29;98.03;100791.97;5031525;28;20117;-78
2022/11/07 07:41:03;;;;;;;10.20;2.40;;;;;;;10.29;98.64;100794.56;5029860;28;20035;-77
2022/11/07 07:43:29;;;;;;;13.93;2.85;;;;;;;10.31;98.13;100800.44;5044362;28;20053;-77
2022/11/07 07:46:03;;;;;;;12.82;2.35;;;;;;;10.33;98.26;100793.38;5045389;28;20025;-76
2022/11/07 07:48:29;;;;;;;12.25;2.83;;;;;;;10.33;98.61;100804.56;5042919;28;20041;-76
2022/11/07 07:50:55;;;;;;;9.75;2.20;;;;;;;10.34;97.98;100805.38;5053800;28;20395;-77
2022/11/07 07:53:20;;;;;;;10.63;2.42;;;;;;;10.30;97.89;100798.78;5050618;28;20033;-77
2022/11/07 07:55:46;;;;;;;8.88;2.20;;;;;;;10.37;98.68;100816.31;5045318;28;20489;-77
2022/11/07 07:58:12;;;;;;;8.85;2.83;;;;;;;10.40;98.24;100820.44;5044752;28;20040;-78
2022/11/07 08:00:38;;;;;;;12.55;2.88;;;;;;;10.43;98.27;100820.19;5042807;28;20025;-77
2022/11/07 08:03:09;;;;;;;10.18;2.58;;;;;;;10.46;98.47;100814.75;5051172;28;20035;-78
2022/11/07 08:05:38;;;;;;;8.98;2.08;;;;;;;10.43;98.02;100804.63;5057370;28;20501;-76
2022/11/07 08:08:05;;;;;;;11.77;2.38;;;;;;;10.51;98.59;100817.81;5047544;28;20514;-78
2022/11/07 08:10:31;;;;;;;10.93;2.13;;;;;;;10.52;97.99;100818.63;5047325;28;20063;-76
2022/11/07 08:12:56;;;;;;;10.07;2.67;;;;;;;10.58;98.33;100818.94;5053184;28;20099;-78
2022/11/07 08:15:22;;;;;;;11.95;2.42;;;;;;;10.61;98.32;100828.25;5049142;28;20336;-77
2022/11/07 08:17:47;;;;;;;8.07;2.22;;;;;;;10.62;98.08;100828.13;5046338;28;20037;-78
2022/11/07 08:20:15;;;;;;;13.13;2.78;;;;;;;10.68;97.16;100834.59;5040803;28;20033;-76
2022/11/07 08:22:41;;;;;;;9.75;2.13;;;;;;;10.67;97.58;100837.28;5042041;28;20128;-78
2022/11/07 08:25:08;;;;;;;9.10;2.15;;;;;;;10.67;98.26;100839.88;5043400;28;20068;-77
2022/11/07 08:27:35;;;;;;;7.85;2.28;;;;;;;10.67;97.68;100839.88;5043169;28;20071;-76
2022/11/07 08:30:01;;;;;;;10.75;2.20;;;;;;;10.68;97.36;100834.59;5045990;28;20037;-77
2022/11/07 08:32:27;;;;;;;7.43;1.92;;;;;;;10.71;97.77;100849.88;5051234;28;20064;-77
2022/11/07 08:34:52;;;;;;;10.18;2.63;;;;;;;10.74;97.61;100848.81;5052059;28;20075;-77
2022/11/07 08:37:18;;;;;;;13.77;2.58;;;;;;;10.75;98.16;100851.28;5063337;28;20032;-78
2022/11/07 08:39:43;;;;;;;9.30;2.22;;;;;;;10.81;98.23;100860.34;5050926;28;20033;-78
2022/11/07 08:42:09;;;;;;;11.98;2.55;;;;;;;10.86;97.93;100855.59;5047757;28;20071;-77
2022/11/07 08:44:35;;;;;;;7.90;2.30;;;;;;;10.84;98.20;100849.72;5058735;28;20503;-78
2022/11/07 08:47:02;;;;;;;8.90;2.35;;;;;;;10.88;98.11;100849.31;5050055;28;20032;-78
2022/11/07 08:49:27;;;;;;;9.18;2.22;;;;;;;10.90;98.32;100854.41;5046829;28;20460;-78
2022/11/07 08:51:52;;;;;;;7.70;2.00;;;;;;;10.96;97.63;100866.88;5049016;28;20040;-78
2022/11/07 08:54:18;;;;;;;9.45;1.95;;;;;;;11.04;97.73;100877.44;5048362;28;20075;-78
2022/11/07 08:56:43;;;;;;;11.40;2.22;;;;;;;11.06;97.36;100872.94;5047293;28;20029;-77
2022/11/07 08:59:09;;;;;;;11.23;2.58;;;;;;;11.09;97.62;100879.66;5039965;28;20095;-77
2022/11/07 09:01:35;;;;;;;17.08;2.22;;;;;;;11.08;97.27;100878.84;5062756;28;20040;-77
2022/11/07 09:04:01;;;;;;;7.50;1.88;;;;;;;11.15;97.39;100884.34;5047539;28;20040;-78
2022/11/07 09:06:26;;;;;;;12.95;2.35;;;;;;;11.17;96.69;100888.44;5052091;28;20037;-78
2022/11/07 09:08:51;;;;;;;11.90;2.17;;;;;;;11.20;96.99;100881.34;5054336;28;21209;-77
2022/11/07 09:11:17;;;;;;;10.05;2.03;;;;;;;11.24;96.72;100887.91;5050744;28;20051;-78
2022/11/07 09:13:45;;;;;;;9.48;1.60;;;;;;;11.26;96.73;100886.03;5044263;28;20032;-77
2022/11/07 09:16:11;;;;;;;6.93;1.73;;;;;;;11.28;96.91;100884.13;5043236;28;20025;-78
2022/11/07 09:18:37;;;;;;;10.73;2.25;;;;;;;11.32;97.05;100886.34;5045629;28;20040;-80
2022/11/07 09:21:03;;;;;;;11.90;2.17;;;;;;;11.32;96.87;100886.34;5047969;28;20036;-78
2022/11/07 09:23:29;;;;;;;14.75;3.05;;;;;;;11.39;96.25;100892.66;5047498;28;20046;-77
2022/11/07 09:25:58;;;;;;;9.73;2.80;;;;;;;11.43;96.28;100896.66;5054957;28;20781;-78
2022/11/07 09:28:23;;;;;;;10.25;2.25;;;;;;;11.47;96.46;100905.03;5051905;28;20381;-78
2022/11/07 09:30:53;;;;;;;8.63;2.53;;;;;;;11.51;96.71;100893.41;5050716;28;20551;-78
2022/11/07 09:33:19;;;;;;;12.27;2.05;;;;;;;11.55;95.75;100900.00;5051011;28;20389;-77
2022/11/07 09:35:44;;;;;;;13.18;2.40;;;;;;;11.57;95.87;100900.69;5058820;28;20387;-77
2022/11/07 09:38:10;;;;;;;9.93;2.88;;;;;;;11.63;95.87;100910.53;5047867;28;20028;-78
2022/11/07 09:40:43;;;;;;;10.18;1.98;;;;;;;11.67;95.25;100909.34;5038490;28;20032;-77
2022/11/07 09:43:25;;;;;;;6.97;2.22;;;;;;;11.68;95.75;100913.59;5036828;28;20048;-77
2022/11/07 09:46:36;;;;;;;7.82;2.17;;;;;;;11.73;95.55;100909.78;5038435;28;20060;-77
2022/11/07 09:49:12;;;;;;;6.82;2.03;;;;;;;11.75;95.69;100907.88;5036514;28;20041;-78
2022/11/07 09:51:43;;;;;;;17.02;2.83;;;;;;;11.75;94.95;100903.47;5040258;28;20068;-78
2022/11/07 09:54:17;;;;;;;9.63;2.20;;;;;;;11.74;95.58;100914.03;5040825;28;20025;-78
2022/11/07 09:56:43;;;;;;;11.82;2.88;;;;;;;11.77;94.74;100916.38;5034539;28;20361;-77
2022/11/07 09:59:31;;;;;;;8.57;2.15;;;;;;;11.77;95.17;100919.78;5047822;28;20489;-78
2022/11/07 10:01:56;;;;;;;12.63;2.58;;;;;;;11.76;95.30;100925.13;5042996;28;20036;-78
2022/11/07 10:04:22;;;;;;;9.80;2.45;;;;;;;11.75;94.77;100924.28;5046717;28;20097;-78
2022/11/07 10:06:54;;;;;;;12.45;2.85;;;;;;;11.73;95.34;100914.97;5036570;28;20105;-78
2022/11/07 10:09:30;;;;;;;8.00;2.40;;;;;;;11.76;95.73;100904.34;5043473;28;20023;-78
2022/11/07 10:12:18;;;;;;;12.30;2.55;;;;;;;11.84;95.33;100901.91;5037446;28;20386;-79
2022/11/07 10:15:04;;;;;;;12.52;2.70;;;;;;;11.87;95.37;100912.03;5048201;28;20033;-78
2022/11/07 10:17:56;;;;;;;10.07;2.28;;;;;;;11.92;95.27;100920.28;5052398;28;20532;-78
2022/11/07 10:20:57;;;;;;;9.45;2.78;;;;;;;11.95;95.48;100914.81;5041710;28;20037;-77
2022/11/07 10:23:38;;;;;;;11.23;2.85;;;;;;;11.99;94.81;100920.59;5045151;28;20033;-79
2022/11/07 10:26:10;;;;;;;9.57;3.03;;;;;;;12.01;94.59;100926.47;5037436;28;20568;-78
2022/11/07 10:28:52;;;;;;;7.93;2.65;;;;;;;12.03;94.05;100927.97;5035440;28;20041;-78
2022/11/07 10:31:18;;;;;;;9.48;2.15;;;;;;;12.03;94.17;100938.38;5046502;28;20526;-78
2022/11/07 10:34:01;;;;;;;11.15;2.58;;;;;;;11.98;94.21;100924.94;5039479;28;20036;-78
2022/11/07 10:36:29;;;;;;;9.50;2.38;;;;;;;12.04;93.81;100942.59;5044931;28;20206;-78
2022/11/07 10:38:55;;;;;;;12.23;2.72;;;;;;;12.03;94.08;100947.94;5046043;28;20028;-78
2022/11/07 10:41:26;;;;;;;9.50;2.08;;;;;;;12.05;93.17;100941.69;5056882;28;20033;-78
2022/11/07 10:44:18;;;;;;;11.20;2.42;;;;;;;12.06;93.46;100948.53;5049192;28;20144;-78
2022/11/07 10:46:46;;;;;;;9.60;2.38;;;;;;;12.05;93.61;100946.88;5040177;28;20045;-79
2022/11/07 10:49:17;;;;;;;10.88;2.83;;;;;;;12.05;93.90;100940.84;5051630;28;20092;-78
2022/11/07 10:51:43;;;;;;;8.77;2.42;;;;;;;12.06;93.03;100948.53;5049161;28;20415;-79
2022/11/07 10:54:25;;;;;;;6.85;2.38;;;;;;;12.08;93.53;100944.00;5045878;28;20544;-79
2022/11/07 10:57:10;;;;;;;9.25;2.40;;;;;;;12.11;93.81;100940.34;5053993;28;20028;-78
2022/11/07 10:59:44;;;;;;;9.30;2.47;;;;;;;12.12;93.39;100952.38;5045727;28;20032;-78
2022/11/07 11:02:20;;;;;;;9.82;2.42;;;;;;;12.13;93.45;100949.63;5044609;28;20489;-78
2022/11/07 11:04:52;;;;;;;10.15;2.47;;;;;;;12.15;93.75;100946.88;5049389;28;20463;-79
2022/11/07 11:07:18;;;;;;;17.25;2.90;;;;;;;12.16;93.25;100944.19;5044083;28;20100;-78
2022/11/07 11:09:50;;;;;;;9.32;2.75;;;;;;;12.20;93.29;100955.13;5045643;28;20120;-79
2022/11/07 11:12:26;;;;;;;9.98;2.10;;;;;;;12.21;93.51;100956.75;5036921;28;20021;-79
2022/11/07 11:15:05;;;;;;;7.93;2.78;;;;;;;12.25;93.34;100950.34;5052155;28;20052;-77
2022/11/07 11:17:31;;;;;;;16.63;2.58;;;;;;;12.25;92.96;100946.94;5029486;28;20064;-78
2022/11/07 11:19:56;;;;;;;13.05;2.60;;;;;;;12.25;92.63;100941.72;5050201;28;20116;-78
2022/11/07 11:22:24;;;;;;;14.30;3.60;;;;;;;12.25;93.33;100939.13;5037941;28;20593;-79
2022/11/07 11:25:16;;;;;;;11.20;2.17;;;;;;;12.29;93.03;100941.34;5045924;28;20582;-78
2022/11/07 11:27:44;;;;;;;13.00;2.47;;;;;;;12.29;92.52;100937.91;5046927;28;20059;-78
2022/11/07 11:30:18;;;;;;;9.20;2.05;;;;;;;12.30;92.86;100934.34;5045390;28;20029;-78
2022/11/07 11:32:59;;;;;;;8.18;2.58;;;;;;;12.34;92.56;100936.56;5048847;28;20025;-78
2022/11/07 11:35:30;;;;;;;8.90;2.42;;;;;;;12.37;93.16;100936.28;5037192;28;20071;-77
2022/11/07 11:38:03;;;;;;;9.55;2.85;;;;;;;12.37;92.18;100925.03;5038631;28;20024;-79
2022/11/07 11:40:36;;;;;;;10.55;2.35;;;;;;;12.44;92.05;100933.94;5044725;28;20028;-78
2022/11/07 11:43:29;;;;;;;16.33;3.05;;;;;;;12.45;92.17;100927.81;5043975;28;20044;-79
2022/11/07 11:46:12;;;;;;;10.38;3.15;;;;;;;12.52;92.20;100928.91;5042987;28;20039;-78